sensor_id;sensor_type;location;lat;lon;timestamp;pressure;altitude;pressure_sealevel;temperature;humidity
19023;BME280;35226;48.606;8.858;2023-07-20T00:01:03;96216.47;;;21.24;65.85
19023;BME280;35226;48.606;8.858;2023-07-20T00:03:28;96220.53;;;21.34;64.69
19023;BME280;35226;48.606;8.858;2023-07-20T00:05:54;96223.38;;;21.18;66.19
19023;BME280;35226;48.606;8.858;2023-07-20T00:08:19;96224.91;;;21.13;66.47
19023;BME280;35226;48.606;8.858;2023-07-20T00:10:45;96229.78;;;21.07;66.28
19023;BME280;35226;48.606;8.858;2023-07-20T00:13:11;96222.38;;;20.98;67.60
19023;BME280;35226;48.606;8.858;2023-07-20T00:15:37;96220.38;;;20.93;66.78
19023;BME280;35226;48.606;8.858;2023-07-20T00:18:04;96230.34;;;20.94;67.48
19023;BME280;35226;48.606;8.858;2023-07-20T00:20:29;96222.66;;;20.89;67.05
19023;BME280;35226;48.606;8.858;2023-07-20T00:22:55;96219.59;;;20.87;66.95
19023;BME280;35226;48.606;8.858;2023-07-20T00:25:23;96218.06;;;20.92;66.24
19023;BME280;35226;48.606;8.858;2023-07-20T00:27:48;96220.38;;;20.77;67.38
19023;BME280;35226;48.606;8.858;2023-07-20T00:30:14;96225.28;;;20.76;67.86
19023;BME280;35226;48.606;8.858;2023-07-20T00:32:41;96220.66;;;20.73;68.01
19023;BME280;35226;48.606;8.858;2023-07-20T00:35:06;96224.47;;;20.81;66.78
19023;BME280;35226;48.606;8.858;2023-07-20T00:37:32;96221.41;;;20.79;66.45
19023;BME280;35226;48.606;8.858;2023-07-20T00:39:58;96228.84;;;20.71;66.81
19023;BME280;35226;48.606;8.858;2023-07-20T00:42:24;96226.78;;;20.77;65.80
19023;BME280;35226;48.606;8.858;2023-07-20T00:44:51;96226.03;;;20.65;66.53
19023;BME280;35226;48.606;8.858;2023-07-20T00:47:16;96227.56;;;20.50;67.18
19023;BME280;35226;48.606;8.858;2023-07-20T00:49:42;96218.94;;;20.37;68.22
19023;BME280;35226;48.606;8.858;2023-07-20T00:52:10;96225.56;;;20.45;67.84
19023;BME280;35226;48.606;8.858;2023-07-20T00:54:37;96225.78;;;20.41;66.95
19023;BME280;35226;48.606;8.858;2023-07-20T00:57:04;96223.25;;;20.38;67.57
19023;BME280;35226;48.606;8.858;2023-07-20T00:59:31;96226.03;;;20.38;66.13
19023;BME280;35226;48.606;8.858;2023-07-20T01:01:56;96226.81;;;20.44;65.75
19023;BME280;35226;48.606;8.858;2023-07-20T01:04:22;96229.63;;;20.44;64.86
19023;BME280;35226;48.606;8.858;2023-07-20T01:06:58;96229.84;;;20.29;65.58
19023;BME280;35226;48.606;8.858;2023-07-20T01:09:30;96239.31;;;20.37;65.33
19023;BME280;35226;48.606;8.858;2023-07-20T01:12:05;96236.00;;;20.50;63.40
19023;BME280;35226;48.606;8.858;2023-07-20T01:14:34;96232.41;;;20.38;63.94
19023;BME280;35226;48.606;8.858;2023-07-20T01:17:00;96221.22;;;20.44;63.88
19023;BME280;35226;48.606;8.858;2023-07-20T01:19:26;96225.53;;;20.39;63.91
19023;BME280;35226;48.606;8.858;2023-07-20T01:22:24;96231.44;;;20.36;65.62
19023;BME280;35226;48.606;8.858;2023-07-20T01:31:14;96225.53;;;20.17;67.70
19023;BME280;35226;48.606;8.858;2023-07-20T01:33:41;96222.97;;;20.30;66.67
19023;BME280;35226;48.606;8.858;2023-07-20T01:36:08;96219.38;;;20.13;68.30
19023;BME280;35226;48.606;8.858;2023-07-20T01:38:36;96219.91;;;20.22;68.29
19023;BME280;35226;48.606;8.858;2023-07-20T01:41:02;96219.91;;;20.22;68.79
19023;BME280;35226;48.606;8.858;2023-07-20T01:43:28;96217.09;;;20.11;69.24
19023;BME280;35226;48.606;8.858;2023-07-20T01:45:54;96215.56;;;20.05;70.50
19023;BME280;35226;48.606;8.858;2023-07-20T01:48:19;96214.25;;;19.83;72.87
19023;BME280;35226;48.606;8.858;2023-07-20T01:50:45;96217.53;;;19.71;74.84
19023;BME280;35226;48.606;8.858;2023-07-20T01:53:11;96216.53;;;19.74;74.00
19023;BME280;35226;48.606;8.858;2023-07-20T01:55:36;96221.56;;;19.53;75.97
19023;BME280;35226;48.606;8.858;2023-07-20T01:58:02;96214.97;;;19.56;77.03
19023;BME280;35226;48.606;8.858;2023-07-20T02:00:29;96217.66;;;19.39;78.27
19023;BME280;35226;48.606;8.858;2023-07-20T02:02:55;96215.94;;;19.47;78.34
19023;BME280;35226;48.606;8.858;2023-07-20T02:05:21;96211.38;;;19.50;77.35
19023;BME280;35226;48.606;8.858;2023-07-20T02:07:47;96219.00;;;19.49;78.23
19023;BME280;35226;48.606;8.858;2023-07-20T02:10:16;96223.03;;;19.43;79.34
19023;BME280;35226;48.606;8.858;2023-07-20T02:12:42;96210.28;;;19.36;79.44
19023;BME280;35226;48.606;8.858;2023-07-20T02:15:08;96211.63;;;19.52;78.60
19023;BME280;35226;48.606;8.858;2023-07-20T02:17:34;96209.09;;;19.48;79.28
19023;BME280;35226;48.606;8.858;2023-07-20T02:20:00;96222.53;;;19.39;79.74
19023;BME280;35226;48.606;8.858;2023-07-20T02:22:25;96219.38;;;19.20;82.87
19023;BME280;35226;48.606;8.858;2023-07-20T02:24:51;96210.50;;;19.27;82.71
19023;BME280;35226;48.606;8.858;2023-07-20T02:27:16;96212.53;;;19.27;81.95
19023;BME280;35226;48.606;8.858;2023-07-20T02:29:42;96217.38;;;19.26;81.72
19023;BME280;35226;48.606;8.858;2023-07-20T02:32:10;96217.66;;;19.28;81.03
19023;BME280;35226;48.606;8.858;2023-07-20T02:34:36;96227.75;;;19.14;84.12
19023;BME280;35226;48.606;8.858;2023-07-20T02:37:02;96224.41;;;19.10;85.35
19023;BME280;35226;48.606;8.858;2023-07-20T02:39:27;96225.97;;;19.11;84.33
19023;BME280;35226;48.606;8.858;2023-07-20T02:41:53;96234.63;;;19.08;85.97
19023;BME280;35226;48.606;8.858;2023-07-20T02:44:19;96230.06;;;19.21;84.37
19023;BME280;35226;48.606;8.858;2023-07-20T02:46:44;96228.09;;;19.28;83.24
19023;BME280;35226;48.606;8.858;2023-07-20T02:49:10;96233.19;;;19.35;83.35
19023;BME280;35226;48.606;8.858;2023-07-20T02:51:35;96233.16;;;19.23;83.20
19023;BME280;35226;48.606;8.858;2023-07-20T02:54:01;96227.75;;;19.14;85.98
19023;BME280;35226;48.606;8.858;2023-07-20T02:56:26;96229.22;;;18.99;86.88
19023;BME280;35226;48.606;8.858;2023-07-20T02:58:52;96223.38;;;19.02;87.24
19023;BME280;35226;48.606;8.858;2023-07-20T03:01:18;96228.00;;;19.11;87.14
19023;BME280;35226;48.606;8.858;2023-07-20T03:03:43;96229.25;;;19.10;87.63
19023;BME280;35226;48.606;8.858;2023-07-20T03:06:15;96237.09;;;18.95;89.44
19023;BME280;35226;48.606;8.858;2023-07-20T03:08:42;96233.00;;;18.96;89.13
19023;BME280;35226;48.606;8.858;2023-07-20T03:11:10;96230.97;;;18.96;89.90
19023;BME280;35226;48.606;8.858;2023-07-20T03:13:36;96230.50;;;18.98;89.72
19023;BME280;35226;48.606;8.858;2023-07-20T03:16:01;96222.81;;;18.93;91.59
19023;BME280;35226;48.606;8.858;2023-07-20T03:18:28;96226.34;;;18.88;91.34
19023;BME280;35226;48.606;8.858;2023-07-20T03:20:54;96227.16;;;18.94;90.00
19023;BME280;35226;48.606;8.858;2023-07-20T03:23:19;96230.44;;;18.92;90.26
19023;BME280;35226;48.606;8.858;2023-07-20T03:25:45;96226.44;;;18.99;90.28
19023;BME280;35226;48.606;8.858;2023-07-20T03:28:10;96230.22;;;18.96;90.61
19023;BME280;35226;48.606;8.858;2023-07-20T03:30:36;96228.63;;;18.83;92.75
19023;BME280;35226;48.606;8.858;2023-07-20T03:33:02;96240.50;;;18.73;94.34
19023;BME280;35226;48.606;8.858;2023-07-20T03:35:29;96241.81;;;18.77;93.67
19023;BME280;35226;48.606;8.858;2023-07-20T03:37:55;96238.66;;;18.64;94.70
19023;BME280;35226;48.606;8.858;2023-07-20T03:40:21;96236.91;;;18.67;95.47
19023;BME280;35226;48.606;8.858;2023-07-20T03:42:46;96240.47;;;18.67;95.54
19023;BME280;35226;48.606;8.858;2023-07-20T03:45:12;96234.97;;;18.78;94.45
19023;BME280;35226;48.606;8.858;2023-07-20T03:47:38;96248.13;;;18.72;95.11
19023;BME280;35226;48.606;8.858;2023-07-20T03:50:04;96246.38;;;18.75;94.54
19023;BME280;35226;48.606;8.858;2023-07-20T03:52:31;96246.91;;;18.79;93.71
19023;BME280;35226;48.606;8.858;2023-07-20T03:54:56;96241.25;;;18.68;95.45
19023;BME280;35226;48.606;8.858;2023-07-20T03:57:21;96247.41;;;18.77;95.73
19023;BME280;35226;48.606;8.858;2023-07-20T03:59:48;96249.94;;;18.75;96.78
19023;BME280;35226;48.606;8.858;2023-07-20T04:02:13;96251.75;;;18.78;96.62
19023;BME280;35226;48.606;8.858;2023-07-20T04:04:41;96238.31;;;18.88;96.45
19023;BME280;35226;48.606;8.858;2023-07-20T04:07:06;96251.34;;;18.97;95.34
19023;BME280;35226;48.606;8.858;2023-07-20T04:09:32;96245.94;;;18.88;97.01
19023;BME280;35226;48.606;8.858;2023-07-20T04:11:58;96252.34;;;18.94;95.78
19023;BME280;35226;48.606;8.858;2023-07-20T04:14:24;96243.44;;;18.95;95.51
19023;BME280;35226;48.606;8.858;2023-07-20T04:16:49;96246.16;;;19.27;92.24
19023;BME280;35226;48.606;8.858;2023-07-20T04:19:17;96253.03;;;19.31;92.57
19023;BME280;35226;48.606;8.858;2023-07-20T04:21:43;96260.16;;;19.27;94.98
19023;BME280;35226;48.606;8.858;2023-07-20T04:24:09;96256.03;;;19.16;96.42
19023;BME280;35226;48.606;8.858;2023-07-20T04:26:34;96255.56;;;19.23;97.40
19023;BME280;35226;48.606;8.858;2023-07-20T04:29:01;96257.06;;;19.19;98.09
19023;BME280;35226;48.606;8.858;2023-07-20T04:31:39;96252.97;;;19.20;98.34
19023;BME280;35226;48.606;8.858;2023-07-20T04:34:04;96252.53;;;19.27;96.39
19023;BME280;35226;48.606;8.858;2023-07-20T04:36:32;96259.59;;;19.17;99.18
19023;BME280;35226;48.606;8.858;2023-07-20T04:38:57;96256.59;;;19.32;98.31
19023;BME280;35226;48.606;8.858;2023-07-20T04:41:23;96251.81;;;19.38;97.53
19023;BME280;35226;48.606;8.858;2023-07-20T04:43:51;96254.28;;;19.25;100.00
19023;BME280;35226;48.606;8.858;2023-07-20T04:46:26;96249.50;;;19.36;98.87
19023;BME280;35226;48.606;8.858;2023-07-20T04:48:52;96244.44;;;19.46;96.77
19023;BME280;35226;48.606;8.858;2023-07-20T04:51:18;96243.72;;;19.51;95.28
19023;BME280;35226;48.606;8.858;2023-07-20T04:53:48;96248.31;;;19.54;95.75
19023;BME280;35226;48.606;8.858;2023-07-20T04:56:14;96255.59;;;19.35;98.46
19023;BME280;35226;48.606;8.858;2023-07-20T04:58:40;96252.09;;;19.45;98.02
19023;BME280;35226;48.606;8.858;2023-07-20T05:01:05;96265.56;;;19.41;97.88
19023;BME280;35226;48.606;8.858;2023-07-20T05:03:33;96260.81;;;19.53;96.09
19023;BME280;35226;48.606;8.858;2023-07-20T05:05:59;96265.16;;;19.59;96.39
19023;BME280;35226;48.606;8.858;2023-07-20T05:08:25;96269.47;;;19.55;97.65
19023;BME280;35226;48.606;8.858;2023-07-20T05:10:52;96258.28;;;19.61;98.58
19023;BME280;35226;48.606;8.858;2023-07-20T05:13:17;96261.34;;;19.63;96.86
19023;BME280;35226;48.606;8.858;2023-07-20T05:15:43;96253.50;;;19.83;96.10
19023;BME280;35226;48.606;8.858;2023-07-20T05:18:12;96261.66;;;19.76;97.46
19023;BME280;35226;48.606;8.858;2023-07-20T05:20:38;96258.13;;;20.03;94.16
19023;BME280;35226;48.606;8.858;2023-07-20T05:23:04;96251.25;;;20.10;93.09
19023;BME280;35226;48.606;8.858;2023-07-20T05:25:30;96260.69;;;20.07;94.96
19023;BME280;35226;48.606;8.858;2023-07-20T05:27:56;96259.66;;;20.04;95.19
19023;BME280;35226;48.606;8.858;2023-07-20T05:30:22;96253.06;;;20.13;93.72
19023;BME280;35226;48.606;8.858;2023-07-20T05:32:47;96250.25;;;20.13;93.88
19023;BME280;35226;48.606;8.858;2023-07-20T05:35:19;96256.63;;;20.19;93.23
19023;BME280;35226;48.606;8.858;2023-07-20T05:37:45;96245.66;;;20.32;93.38
19023;BME280;35226;48.606;8.858;2023-07-20T05:40:11;96250.53;;;20.43;91.67
19023;BME280;35226;48.606;8.858;2023-07-20T05:42:38;96253.63;;;20.45;92.11
19023;BME280;35226;48.606;8.858;2023-07-20T05:45:04;96252.09;;;20.44;91.38
19023;BME280;35226;48.606;8.858;2023-07-20T05:47:29;96245.69;;;20.26;90.96
19023;BME280;35226;48.606;8.858;2023-07-20T05:49:55;96243.13;;;20.62;88.54
19023;BME280;35226;48.606;8.858;2023-07-20T05:52:20;96244.84;;;20.98;84.99
19023;BME280;35226;48.606;8.858;2023-07-20T05:54:46;96255.09;;;20.79;87.72
19023;BME280;35226;48.606;8.858;2023-07-20T05:57:11;96241.28;;;20.98;86.11
19023;BME280;35226;48.606;8.858;2023-07-20T05:59:36;96251.25;;;20.88;87.27
19023;BME280;35226;48.606;8.858;2023-07-20T06:02:04;96251.25;;;21.04;86.36
19023;BME280;35226;48.606;8.858;2023-07-20T06:04:29;96251.72;;;21.09;86.10
19023;BME280;35226;48.606;8.858;2023-07-20T06:06:55;96259.69;;;21.04;87.03
19023;BME280;35226;48.606;8.858;2023-07-20T06:09:20;96258.38;;;21.11;85.27
19023;BME280;35226;48.606;8.858;2023-07-20T06:11:45;96270.13;;;21.10;84.48
19023;BME280;35226;48.606;8.858;2023-07-20T06:14:11;96267.53;;;21.17;84.92
19023;BME280;35226;48.606;8.858;2023-07-20T06:16:36;96266.53;;;21.09;84.77
19023;BME280;35226;48.606;8.858;2023-07-20T06:19:02;96259.38;;;21.30;83.41
19023;BME280;35226;48.606;8.858;2023-07-20T06:21:27;96264.94;;;21.36;83.69
19023;BME280;35226;48.606;8.858;2023-07-20T06:23:53;96259.06;;;21.39;83.08
19023;BME280;35226;48.606;8.858;2023-07-20T06:26:18;96261.13;;;21.39;83.80
19023;BME280;35226;48.606;8.858;2023-07-20T06:28:45;96257.84;;;21.29;83.65
19023;BME280;35226;48.606;8.858;2023-07-20T06:31:10;96256.28;;;21.34;82.84
19023;BME280;35226;48.606;8.858;2023-07-20T06:33:36;96255.28;;;21.26;83.16
19023;BME280;35226;48.606;8.858;2023-07-20T06:36:02;96249.41;;;21.29;81.40
19023;BME280;35226;48.606;8.858;2023-07-20T06:38:28;96256.00;;;21.43;80.88
19023;BME280;35226;48.606;8.858;2023-07-20T06:40:54;96244.44;;;21.58;80.24
19023;BME280;35226;48.606;8.858;2023-07-20T06:43:20;96251.28;;;21.73;80.07
19023;BME280;35226;48.606;8.858;2023-07-20T06:45:51;96249.59;;;21.95;77.86
19023;BME280;35226;48.606;8.858;2023-07-20T06:48:17;96250.06;;;21.58;79.07
19023;BME280;35226;48.606;8.858;2023-07-20T06:50:43;96256.84;;;21.79;78.42
19023;BME280;35226;48.606;8.858;2023-07-20T06:53:08;96260.59;;;21.98;77.58
19023;BME280;35226;48.606;8.858;2023-07-20T06:55:33;96251.63;;;21.94;78.42
19023;BME280;35226;48.606;8.858;2023-07-20T06:57:59;96260.69;;;21.82;77.71
19023;BME280;35226;48.606;8.858;2023-07-20T07:00:24;96251.72;;;21.83;75.72
19023;BME280;35226;48.606;8.858;2023-07-20T07:02:50;96252.94;;;21.93;76.73
19023;BME280;35226;48.606;8.858;2023-07-20T07:05:15;96259.81;;;22.03;76.49
19023;BME280;35226;48.606;8.858;2023-07-20T07:07:41;96246.09;;;21.83;78.83
19023;BME280;35226;48.606;8.858;2023-07-20T07:10:07;96248.72;;;22.17;76.54
19023;BME280;35226;48.606;8.858;2023-07-20T07:12:34;96251.41;;;21.92;76.38
19023;BME280;35226;48.606;8.858;2023-07-20T07:15:02;96244.19;;;22.08;76.44
19023;BME280;35226;48.606;8.858;2023-07-20T07:17:27;96244.56;;;22.23;75.36
19023;BME280;35226;48.606;8.858;2023-07-20T07:19:53;96251.59;;;22.05;76.61
19023;BME280;35226;48.606;8.858;2023-07-20T07:22:20;96247.81;;;22.03;77.25
19023;BME280;35226;48.606;8.858;2023-07-20T07:24:47;96253.53;;;21.75;78.42
19023;BME280;35226;48.606;8.858;2023-07-20T07:27:12;96249.09;;;22.02;77.11
19023;BME280;35226;48.606;8.858;2023-07-20T07:29:38;96242.13;;;22.08;75.52
19023;BME280;35226;48.606;8.858;2023-07-20T07:32:03;96247.31;;;21.93;77.02
19023;BME280;35226;48.606;8.858;2023-07-20T07:34:29;96247.25;;;22.04;75.54
19023;BME280;35226;48.606;8.858;2023-07-20T07:36:54;96245.59;;;22.26;75.51
19023;BME280;35226;48.606;8.858;2023-07-20T07:39:20;96239.28;;;22.44;73.63
19023;BME280;35226;48.606;8.858;2023-07-20T07:41:45;96237.13;;;22.26;73.95
19023;BME280;35226;48.606;8.858;2023-07-20T07:44:11;96241.94;;;22.01;72.19
19023;BME280;35226;48.606;8.858;2023-07-20T07:46:37;96240.78;;;22.21;69.54
19023;BME280;35226;48.606;8.858;2023-07-20T07:49:02;96233.44;;;22.42;64.15
19023;BME280;35226;48.606;8.858;2023-07-20T07:51:28;96235.00;;;22.37;67.61
19023;BME280;35226;48.606;8.858;2023-07-20T07:53:53;96235.97;;;22.45;68.66
19023;BME280;35226;48.606;8.858;2023-07-20T07:56:19;96237.69;;;22.54;70.51
19023;BME280;35226;48.606;8.858;2023-07-20T07:58:48;96231.59;;;22.80;67.94
19023;BME280;35226;48.606;8.858;2023-07-20T08:01:14;96234.94;;;22.78;68.69
19023;BME280;35226;48.606;8.858;2023-07-20T08:03:40;96234.94;;;22.78;67.23
19023;BME280;35226;48.606;8.858;2023-07-20T08:06:05;96235.94;;;23.05;60.81
19023;BME280;35226;48.606;8.858;2023-07-20T08:08:32;96230.19;;;22.92;61.12
19023;BME280;35226;48.606;8.858;2023-07-20T08:10:58;96235.63;;;22.84;61.24
19023;BME280;35226;48.606;8.858;2023-07-20T08:13:23;96226.63;;;22.92;61.64
19023;BME280;35226;48.606;8.858;2023-07-20T08:15:50;96234.13;;;23.08;59.63
19023;BME280;35226;48.606;8.858;2023-07-20T08:18:18;96227.56;;;23.00;56.52
19023;BME280;35226;48.606;8.858;2023-07-20T08:20:45;96226.31;;;22.95;55.26
19023;BME280;35226;48.606;8.858;2023-07-20T08:23:10;96226.31;;;23.19;56.09
19023;BME280;35226;48.606;8.858;2023-07-20T08:25:36;96226.88;;;23.37;56.08
19023;BME280;35226;48.606;8.858;2023-07-20T08:28:05;96230.38;;;23.43;53.21
19023;BME280;35226;48.606;8.858;2023-07-20T08:30:40;96228.41;;;23.38;53.44
19023;BME280;35226;48.606;8.858;2023-07-20T08:33:05;96228.47;;;23.32;52.78
19023;BME280;35226;48.606;8.858;2023-07-20T08:35:31;96236.16;;;23.56;52.36
19023;BME280;35226;48.606;8.858;2023-07-20T08:37:56;96239.16;;;23.15;54.81
19023;BME280;35226;48.606;8.858;2023-07-20T08:40:22;96233.25;;;23.18;55.01
19023;BME280;35226;48.606;8.858;2023-07-20T08:42:47;96236.38;;;23.34;55.09
19023;BME280;35226;48.606;8.858;2023-07-20T08:45:16;96237.69;;;23.57;55.50
19023;BME280;35226;48.606;8.858;2023-07-20T08:47:43;96239.97;;;23.58;54.59
19023;BME280;35226;48.606;8.858;2023-07-20T08:50:10;96225.25;;;23.66;54.80
19023;BME280;35226;48.606;8.858;2023-07-20T08:52:36;96223.66;;;23.89;53.27
19023;BME280;35226;48.606;8.858;2023-07-20T08:55:02;96217.09;;;23.99;53.11
19023;BME280;35226;48.606;8.858;2023-07-20T08:57:34;96219.31;;;23.88;50.81
19023;BME280;35226;48.606;8.858;2023-07-20T09:00:02;96214.00;;;24.35;49.24
19023;BME280;35226;48.606;8.858;2023-07-20T09:02:35;96223.84;;;24.10;45.13
19023;BME280;35226;48.606;8.858;2023-07-20T09:05:04;96211.13;;;24.22;44.68
19023;BME280;35226;48.606;8.858;2023-07-20T09:07:30;96213.31;;;23.78;41.24
19023;BME280;35226;48.606;8.858;2023-07-20T09:09:57;96210.84;;;23.88;41.42
19023;BME280;35226;48.606;8.858;2023-07-20T09:12:23;96215.03;;;24.00;41.71
19023;BME280;35226;48.606;8.858;2023-07-20T09:14:49;96201.97;;;24.16;41.66
19023;BME280;35226;48.606;8.858;2023-07-20T09:17:14;96216.44;;;24.44;42.82
19023;BME280;35226;48.606;8.858;2023-07-20T09:19:47;96220.44;;;24.17;43.62
19023;BME280;35226;48.606;8.858;2023-07-20T09:22:12;96213.34;;;24.10;42.61
19023;BME280;35226;48.606;8.858;2023-07-20T09:24:38;96217.72;;;24.43;42.96
19023;BME280;35226;48.606;8.858;2023-07-20T09:27:04;96209.56;;;24.21;42.53
19023;BME280;35226;48.606;8.858;2023-07-20T09:29:30;96207.16;;;24.12;41.58
19023;BME280;35226;48.606;8.858;2023-07-20T09:32:03;96207.91;;;24.12;41.32
19023;BME280;35226;48.606;8.858;2023-07-20T09:34:30;96215.22;;;24.40;40.35
19023;BME280;35226;48.606;8.858;2023-07-20T09:36:59;96212.78;;;24.62;39.90
19023;BME280;35226;48.606;8.858;2023-07-20T09:39:25;96208.56;;;24.69;39.62
19023;BME280;35226;48.606;8.858;2023-07-20T09:41:51;96207.50;;;24.85;40.01
19023;BME280;35226;48.606;8.858;2023-07-20T09:44:17;96206.53;;;24.83;38.18
19023;BME280;35226;48.606;8.858;2023-07-20T09:46:47;96210.00;;;24.76;38.74
19023;BME280;35226;48.606;8.858;2023-07-20T09:49:13;96209.94;;;25.07;38.40
19023;BME280;35226;48.606;8.858;2023-07-20T09:51:39;96207.75;;;25.00;37.56
19023;BME280;35226;48.606;8.858;2023-07-20T09:54:06;96197.41;;;25.56;37.73
19023;BME280;35226;48.606;8.858;2023-07-20T09:56:32;96202.66;;;25.25;36.40
19023;BME280;35226;48.606;8.858;2023-07-20T09:58:58;96190.16;;;25.34;36.80
19023;BME280;35226;48.606;8.858;2023-07-20T10:01:24;96193.41;;;25.64;37.07
19023;BME280;35226;48.606;8.858;2023-07-20T10:03:54;96201.38;;;25.87;36.16
19023;BME280;35226;48.606;8.858;2023-07-20T10:06:23;96189.56;;;26.09;35.67
19023;BME280;35226;48.606;8.858;2023-07-20T10:08:53;96176.38;;;26.11;34.43
19023;BME280;35226;48.606;8.858;2023-07-20T10:11:21;96185.03;;;25.93;36.56
19023;BME280;35226;48.606;8.858;2023-07-20T10:13:51;96192.22;;;25.94;36.37
19023;BME280;35226;48.606;8.858;2023-07-20T10:16:28;96187.06;;;26.26;35.90
19023;BME280;35226;48.606;8.858;2023-07-20T10:18:59;96177.81;;;26.26;34.58
19023;BME280;35226;48.606;8.858;2023-07-20T10:21:27;96172.13;;;26.60;34.83
19023;BME280;35226;48.606;8.858;2023-07-20T10:23:56;96167.88;;;26.74;34.59
19023;BME280;35226;48.606;8.858;2023-07-20T10:26:22;96170.59;;;27.08;33.43
19023;BME280;35226;48.606;8.858;2023-07-20T10:28:47;96166.09;;;26.63;33.33
19023;BME280;35226;48.606;8.858;2023-07-20T10:31:13;96177.63;;;26.65;33.56
19023;BME280;35226;48.606;8.858;2023-07-20T10:33:39;96176.41;;;26.53;34.32
19023;BME280;35226;48.606;8.858;2023-07-20T10:36:07;96171.31;;;26.80;34.71
19023;BME280;35226;48.606;8.858;2023-07-20T10:41:21;96173.69;;;26.68;34.22
19023;BME280;35226;48.606;8.858;2023-07-20T10:43:48;96174.22;;;26.25;33.35
19023;BME280;35226;48.606;8.858;2023-07-20T10:46:14;96170.66;;;26.45;33.38
19023;BME280;35226;48.606;8.858;2023-07-20T10:49:03;96162.41;;;26.76;33.39
19023;BME280;35226;48.606;8.858;2023-07-20T10:51:43;96166.28;;;26.65;34.38
19023;BME280;35226;48.606;8.858;2023-07-20T10:57:04;96149.81;;;26.84;35.05
19023;BME280;35226;48.606;8.858;2023-07-20T10:59:41;96147.94;;;27.15;34.45
19023;BME280;35226;48.606;8.858;2023-07-20T11:02:07;96143.53;;;27.43;31.31
19023;BME280;35226;48.606;8.858;2023-07-20T11:04:42;96151.28;;;27.42;30.99
19023;BME280;35226;48.606;8.858;2023-07-20T11:07:08;96143.34;;;27.84;31.95
19023;BME280;35226;48.606;8.858;2023-07-20T11:09:38;96147.16;;;28.02;31.62
19023;BME280;35226;48.606;8.858;2023-07-20T11:12:14;96154.00;;;28.07;31.57
19023;BME280;35226;48.606;8.858;2023-07-20T11:15:00;96154.44;;;28.33;30.85
19023;BME280;35226;48.606;8.858;2023-07-20T11:17:33;96150.31;;;28.50;31.21
19023;BME280;35226;48.606;8.858;2023-07-20T11:19:59;96153.34;;;28.67;31.38
19023;BME280;35226;48.606;8.858;2023-07-20T11:22:30;96169.81;;;28.38;30.82
19023;BME280;35226;48.606;8.858;2023-07-20T11:24:57;96146.69;;;28.80;29.88
19023;BME280;35226;48.606;8.858;2023-07-20T11:27:23;96139.88;;;28.90;30.88
19023;BME280;35226;48.606;8.858;2023-07-20T11:29:49;96134.34;;;29.07;30.49
19023;BME280;35226;48.606;8.858;2023-07-20T11:32:22;96121.47;;;28.91;30.80
19023;BME280;35226;48.606;8.858;2023-07-20T11:34:48;96126.09;;;29.42;29.85
19023;BME280;35226;48.606;8.858;2023-07-20T11:37:14;96126.41;;;28.91;29.52
19023;BME280;35226;48.606;8.858;2023-07-20T11:39:40;96138.16;;;28.72;30.39
19023;BME280;35226;48.606;8.858;2023-07-20T11:42:05;96134.94;;;28.68;30.05
19023;BME280;35226;48.606;8.858;2023-07-20T11:44:32;96129.78;;;29.12;30.79
19023;BME280;35226;48.606;8.858;2023-07-20T11:47:11;96125.66;;;29.61;28.95
19023;BME280;35226;48.606;8.858;2023-07-20T11:49:44;96121.47;;;29.62;29.80
19023;BME280;35226;48.606;8.858;2023-07-20T11:52:12;96118.97;;;29.11;28.67
19023;BME280;35226;48.606;8.858;2023-07-20T11:54:39;96126.31;;;29.29;29.35
19023;BME280;35226;48.606;8.858;2023-07-20T11:57:05;96127.09;;;29.22;29.33
19023;BME280;35226;48.606;8.858;2023-07-20T11:59:32;96114.97;;;29.69;29.19
19023;BME280;35226;48.606;8.858;2023-07-20T12:02:06;96112.81;;;29.85;28.27
19023;BME280;35226;48.606;8.858;2023-07-20T12:04:33;96112.88;;;30.09;27.62
19023;BME280;35226;48.606;8.858;2023-07-20T12:06:59;96108.66;;;30.43;27.43
19023;BME280;35226;48.606;8.858;2023-07-20T12:09:25;96107.06;;;30.49;27.72
19023;BME280;35226;48.606;8.858;2023-07-20T12:11:50;96105.97;;;30.45;27.42
19023;BME280;35226;48.606;8.858;2023-07-20T12:14:16;96109.25;;;29.76;26.57
19023;BME280;35226;48.606;8.858;2023-07-20T12:16:41;96105.06;;;29.77;27.10
19023;BME280;35226;48.606;8.858;2023-07-20T12:19:08;96090.72;;;30.00;27.36
19023;BME280;35226;48.606;8.858;2023-07-20T12:21:35;96101.19;;;30.23;27.53
19023;BME280;35226;48.606;8.858;2023-07-20T12:24:02;96097.88;;;29.69;27.82
19023;BME280;35226;48.606;8.858;2023-07-20T12:26:32;96095.06;;;30.01;27.61
19023;BME280;35226;48.606;8.858;2023-07-20T12:28:59;96094.44;;;30.10;27.46
19023;BME280;35226;48.606;8.858;2023-07-20T12:31:25;96094.69;;;29.65;27.16
19023;BME280;35226;48.606;8.858;2023-07-20T12:33:51;96092.53;;;29.33;27.82
19023;BME280;35226;48.606;8.858;2023-07-20T12:36:18;96088.25;;;29.64;28.32
19023;BME280;35226;48.606;8.858;2023-07-20T12:38:44;96082.75;;;29.99;28.70
19023;BME280;35226;48.606;8.858;2023-07-20T12:41:10;96081.78;;;30.04;28.32
19023;BME280;35226;48.606;8.858;2023-07-20T12:43:48;96064.75;;;29.89;26.68
19023;BME280;35226;48.606;8.858;2023-07-20T12:46:15;96081.38;;;30.32;26.87
19023;BME280;35226;48.606;8.858;2023-07-20T12:48:41;96079.59;;;29.79;27.32
19023;BME280;35226;48.606;8.858;2023-07-20T12:51:11;96078.97;;;30.71;25.94
19023;BME280;35226;48.606;8.858;2023-07-20T12:53:37;96068.13;;;30.69;27.75
19023;BME280;35226;48.606;8.858;2023-07-20T12:56:03;96062.69;;;30.64;27.23
19023;BME280;35226;48.606;8.858;2023-07-20T12:58:28;96058.63;;;30.25;26.96
19023;BME280;35226;48.606;8.858;2023-07-20T13:00:54;96065.66;;;31.08;25.81
19023;BME280;35226;48.606;8.858;2023-07-20T13:03:19;96059.25;;;31.34;26.75
19023;BME280;35226;48.606;8.858;2023-07-20T13:05:48;96058.94;;;32.01;25.37
19023;BME280;35226;48.606;8.858;2023-07-20T13:08:14;96055.00;;;32.23;25.04
19023;BME280;35226;48.606;8.858;2023-07-20T13:10:40;96051.28;;;31.77;24.90